Monday, October 15, 2018, 11:40 PM EDT
Back to Local

KELZ, Wellsville Municipal Airport

Location: Wellsville, NY, United States Lat: 42.1
Local Time: 11:40 PM EDT ( 3:40 GMT) Lon: -78
Time Zone: US/Eastern Elev: 2122 ft

Show me the last for .
Show Decoded

2018-10-15 22:56 METAR KELZ 160256Z AUTO 30015G23KT 10SM FEW021 SCT031 OVC046 07/02 A3007 RMK AO2
                 PK WND 29029/0236 SLP187 60001 T00670022 53036 =
2018-10-15 22:46 METAR KELZ 160246Z AUTO 30018G27KT 10SM FEW021 SCT026 BKN040 07/03 A3006 RMK AO2
                 PK WND 29029/0236 T00720028 =
2018-10-15 22:33 METAR KELZ 160233Z AUTO 30019G26KT 10SM BKN023 BKN031 OVC037 07/03 A3005 RMK AO2
                 PK WND 33026/0230 T00720033 =
2018-10-15 21:56 METAR KELZ 160156Z AUTO 27014G22KT 10SM SCT045 07/03 A3002 RMK AO2 PK WND
                 29027/0126 SLP172 T00720033 =
2018-10-15 20:56 METAR KELZ 160056Z AUTO 29016G27KT 10SM FEW023 BKN041 08/06 A2999 RMK AO2 PK WND
                 29027/0049 RAE18 SLP160 P0001 T00830056 =
2018-10-15 20:47 METAR KELZ 160047Z AUTO 28017G22KT 10SM FEW016 SCT027 BKN042 08/06 A2998 RMK AO2
                 PK WND 30026/0037 RAE18 P0001 T00830061 =
2018-10-15 19:56 METAR KELZ 152356Z AUTO 28013G20KT 8SM -RA SCT013 OVC019 09/08 A2995 RMK AO2 PK
                 WND 28034/2317 RAB12E24B47 SLP148 P0000 60021 T00940083 10156 20094 51020 =
2018-10-15 19:22 METAR KELZ 152322Z AUTO 28019G34KT 7SM -RA SCT015 BKN019 OVC026 09/08 A2994 RMK
                 AO2 PK WND 28034/2317 RAB12 P0000 T00940078 =
2018-10-15 18:56 METAR KELZ 152256Z AUTO 29015G23KT 10SM BKN014 OVC022 11/09 A2993 RMK AO2 PK WND
                 29030/2213 RAE52 SLP138 P0001 T01060089 =
2018-10-15 18:49 METAR KELZ 152249Z AUTO 28015G29KT 9SM -RA BKN014 OVC022 11/09 A2992 RMK AO2 PK
                 WND 29030/2213 P0001 T01060089 =
2018-10-15 18:32 METAR KELZ 152232Z AUTO 28019G27KT 3SM -RA BR SCT010 BKN016 OVC022 11/09 A2991
                 RMK AO2 PK WND 29030/2213 P0001 T01060094 =
2018-10-15 18:27 METAR KELZ 152227Z AUTO 28016G28KT 2 1/2SM -RA BR FEW010 BKN014 OVC022 11/09
                 A2990 RMK AO2 PK WND 29030/2213 VIS 2V4 P0001 T01060094 =
2018-10-15 18:12 METAR KELZ 152212Z AUTO 29023G29KT 6SM -RA BR FEW010 BKN015 OVC025 11/10 A2990
                 RMK AO2 PK WND 29029/2212 P0000 T01110100 =
2018-10-15 18:03 METAR KELZ 152203Z AUTO 28013G21KT 4SM -RA BR BKN013 BKN018 OVC028 12/10 A2989
                 RMK AO2 P0000 T01170100 =
2018-10-15 17:56 METAR KELZ 152156Z AUTO 27013G22KT 4SM -RA BR BKN015 OVC020 12/10 A2989 RMK AO2
                 RAE12B53 SLP126 P0000 T01170100 =
2018-10-15 17:38 METAR KELZ 152138Z AUTO 27010G20KT 6SM BR BKN013 OVC019 12/11 A2988 RMK AO2
                 RAE12 P0000 T01170106 =
2018-10-15 16:56 METAR KELZ 152056Z AUTO 27015G24KT 7SM -RA BKN018 BKN023 OVC035 12/11 A2987 RMK
                 AO2 SLP120 P0002 60020 T01220111 51007 =
2018-10-15 16:41 METAR KELZ 152041Z AUTO 27012G22KT 10SM -RA BKN016 OVC035 13/11 A2987 RMK AO2
                 P0002 T01280111 =
2018-10-15 16:21 METAR KELZ 152021Z AUTO 27008G19KT 10SM -RA BKN014 BKN023 OVC048 13/12 A2987 RMK
                 AO2 P0002 T01330117 =
2018-10-15 15:56 METAR KELZ 151956Z AUTO 27011G20KT 3SM RA BR SCT012 BKN025 OVC070 13/12 A2987
                 RMK AO2 SLP117 P0006 T01330122 =
2018-10-15 15:48 METAR KELZ 151948Z AUTO 28013G21KT 3SM -RA BR FEW011 BKN043 OVC065 14/13 A2986
                 RMK AO2 P0005 T01390128 =
2018-10-15 15:27 METAR KELZ 151927Z AUTO 27014G22KT 5SM -RA BR SCT007 BKN015 OVC020 14/13 A2986
                 RMK AO2 P0002 T01390128 =
2018-10-15 15:06 METAR KELZ 151906Z AUTO 29010KT 9SM -RA BKN009 OVC016 15/14 A2985 RMK AO2 CIG
                 007V014 P0000 T01500139 =
2018-10-15 14:56 METAR KELZ 151856Z AUTO 27014G28KT 2 1/2SM RA BR BKN009 BKN016 OVC023 15/14
                 A2985 RMK AO2 PK WND 27028/1848 SLP110 P0012 T01500139 =
2018-10-15 14:52 METAR KELZ 151852Z AUTO 27014G28KT 4SM -RA BR SCT009 BKN013 OVC020 15/14 A2985
                 RMK AO2 PK WND 27028/1848 P0011 =
2018-10-15 14:38 METAR KELZ 151838Z AUTO 26012G22KT 4SM -RA BR BKN009 BKN017 OVC026 16/14 A2984
                 RMK AO2 P0009 T01560144 =
2018-10-15 14:30 METAR KELZ 151830Z AUTO 26009G17KT 3SM -RA BR BKN011 BKN017 OVC026 16/14 A2984
                 RMK AO2 P0008 T01560144 =
2018-10-15 14:24 METAR KELZ 151824Z AUTO 25011G18KT 2SM RA BR BKN009 BKN018 OVC028 16/15 A2984
                 RMK AO2 VIS 1 1/4V4 P0008 T01560150 =
2018-10-15 14:02 METAR KELZ 151802Z AUTO 25012G24KT 1 3/4SM -RA BR SCT009 OVC013 16/14 A2985 RMK
                 AO2 P0001 T01560144 =
2018-10-15 13:56 METAR KELZ 151756Z AUTO 24009KT 3SM -RA BR BKN009 OVC015 16/14 A2984 RMK AO2
                 RAB04E13B19 CIG 006V013 SLP108 P0001 60002 T01560144 10156 20100 58022 =
2018-10-15 13:53 METAR KELZ 151753Z AUTO 23009KT 3SM -RA BR BKN009 OVC015 16/14 A2985 RMK AO2
                 RAB04E13B19 CIG 006V012 P0001 =
2018-10-15 13:44 METAR KELZ 151744Z AUTO 22008G17KT 2SM -RA BR SCT007 OVC013 16/14 A2985 RMK AO2
                 RAB04E13B19 P0001 T01560144 =
2018-10-15 13:40 METAR KELZ 151740Z AUTO 22010G17KT 3SM -RA BR BKN010 OVC015 16/14 A2986 RMK AO2
                 RAB04E13B19 CIG 006V014 P0001 T01560144 =
2018-10-15 13:29 METAR KELZ 151729Z AUTO 23009KT 2SM -RA BR FEW008 OVC013 15/14 A2986 RMK AO2
                 RAB04E13B19 P0001 T01500144 =
2018-10-15 13:17 METAR KELZ 151717Z AUTO 22011KT 4SM BR BKN011 OVC016 15/14 A2987 RMK AO2
                 RAB04E13 CIG 006V014 P0000 T01500139 =
2018-10-15 12:56 METAR KELZ 151656Z AUTO 22008G16KT 7SM BKN009 OVC015 15/14 A2987 RMK AO2 SLP119
                 T01500139 =
2018-10-15 11:56 METAR KELZ 151556Z AUTO 22008G20KT 4SM BR OVC006 14/14 A2989 RMK AO2 RAE29
                 SLP124 P0000 T01440139 =
2018-10-15 11:28 METAR KELZ 151528Z AUTO 20008KT 3SM -RA BR BKN005 OVC012 14/13 A2990 RMK AO2 CIG
                 004V008 P0000 T01390128 =
2018-10-15 11:13 METAR KELZ 151513Z AUTO 21009G16KT 1 1/2SM -RA BR OVC005 13/12 A2991 RMK AO2
                 P0000 T01280122 =
2018-10-15 11:03 METAR KELZ 151503Z AUTO 21009G15KT 2SM -RA BR OVC005 13/12 A2992 RMK AO2 P0000
                 T01280122 =
2018-10-15 10:56 METAR KELZ 151456Z AUTO 22010G15KT 1 3/4SM -RA BR OVC005 13/12 A2991 RMK AO2
                 RAB31E41B51 SLP134 P0000 60001 T01280122 56014 =
2018-10-15 10:51 METAR KELZ 151451Z AUTO 22009G15KT 170V250 1 3/4SM -RA BR OVC005 13/12 A2992 RMK
                 AO2 RAB31E41B51 P0000 =
2018-10-15 10:20 METAR KELZ 151420Z AUTO 20011G16KT 3SM BR OVC005 12/12 A2992 RMK AO2 T01220117 =
2018-10-15 10:12 METAR KELZ 151412Z AUTO 19009KT 3SM BR OVC004 12/12 A2992 RMK AO2 T01170117 =
2018-10-15 09:56 METAR KELZ 151356Z AUTO 19010G16KT 1 1/2SM BR OVC004 12/11 A2993 RMK AO2 RAE39
                 SLP139 P0001 T01170111 =
2018-10-15 09:49 METAR KELZ 151349Z AUTO 20010G17KT 1 1/2SM BR OVC004 12/11 A2993 RMK AO2 RAE39
                 P0001 T01170111 =
2018-10-15 09:37 METAR KELZ 151337Z AUTO 19010G15KT 160V220 1 1/2SM -RA BR OVC005 11/11 A2993 RMK
                 AO2 P0001 T01110106 =
2018-10-15 08:56 METAR KELZ 151256Z AUTO 20008KT 2SM -RA BR OVC005 11/10 A2996 RMK AO2 RAB38
                 SLP149 P0000 T01060100 =
2018-10-15 07:56 METAR KELZ 151156Z AUTO 18007KT 1 3/4SM BR OVC005 10/09 A2995 RMK AO2 SLP148
                 60001 70001 T01000094 10100 20072 56013 =
2018-10-15 06:56 METAR KELZ 151056Z AUTO 16008KT 4SM BR OVC005 09/09 A2997 RMK AO2 RAB22E33 CIG
                 004V008 SLP152 P0001 T00940089 =
2018-10-15 06:39 METAR KELZ 151039Z AUTO VRB06KT 4SM BR OVC005 09/09 A2997 RMK AO2 RAB22E33 CIG
                 004V008 P0001 T00940089 =
2018-10-15 05:56 METAR KELZ 150956Z AUTO VRB06KT 2 1/2SM BR OVC005 08/08 A2998 RMK AO2 RAE14
                 SLP155 P0000 T00830083 =
2018-10-15 05:48 METAR KELZ 150948Z AUTO 14005KT 2 1/2SM BR OVC005 08/08 A2997 RMK AO2 RAE14
                 P0000 T00830078 =
2018-10-15 04:56 METAR KELZ 150856Z AUTO 13004KT 5SM -RA BR OVC007 08/08 A2999 RMK AO2
                 RAB08E30B54 SLP159 P0000 60000 T00830078 56017 =
2018-10-15 03:56 METAR KELZ 150756Z AUTO 16006KT 10SM OVC009 08/07 A3001 RMK AO2 RAB05E22B42E52
                 SLP167 P0000 T00830072 =
2018-10-15 03:52 METAR KELZ 150752Z AUTO 16007KT 10SM OVC009 08/07 A3001 RMK AO2 RAB05E22B42E52
                 P0000 =
2018-10-15 03:37 METAR KELZ 150737Z AUTO 17006KT 10SM BKN010 BKN017 OVC021 08/07 A3003 RMK AO2
                 RAB05E22 P0000 T00830072 =
2018-10-15 02:56 METAR KELZ 150656Z AUTO 16006KT 10SM FEW010 SCT019 OVC029 08/06 A3005 RMK AO2
                 SLP179 T00780061 =
2018-10-15 01:56 METAR KELZ 150556Z AUTO VRB05KT 10SM BKN021 BKN070 OVC110 08/06 A3007 RMK AO2
                 SLP186 T00780061 10100 20067 56011 =
2018-10-15 01:52 METAR KELZ 150552Z AUTO 17003KT 10SM BKN021 BKN070 OVC110 07/06 A3007 RMK AO2 =
2018-10-15 00:56 METAR KELZ 150456Z AUTO VRB06KT 10SM CLR 07/05 A3008 RMK AO2 SLP191 T00720050
                 401390028 =
2018-10-14 23:56 METAR KELZ 150356Z AUTO 16006KT 10SM CLR 07/05 A3010 RMK AO2 SLP202 T00720050 =

Support USWX by starting your Amazon purchase here.